PWSweather.com
Personal Weather Stations
Station Observations
KMILAPEE3
Lapeer Michigan, Lapeer, MI 48446

Lapeer MichiganLapeer, MI 48446

Lat: 43.057, Lon: -83.362

Elevation: 897

Station Type: Oregon Scientific WMR-968

Latest ConditionsUpdated 7:33:21 PM EDT Tuesday, Jul 22, 2014
Currently Today's Max Today's Min Today's Average
Temperature 83.8°F28.8°C 86.5°F30.3°C 63.0°F17.2°C 76.2°F24.6°C
Dew Point 56.5°F13.6°C 63.5°F17.5°C 49.7°F9.8°C 55.9°F13.3°C
Winds 3.9 mph SW6.3 kmh SW 8.1 mph S13.0 kmh S - 3.7 mph 6.0 kmh
Wind Gusts 12.0 mph19.3 kmh 19.4 mph31.2 kmh - -
Humidity 40% 73% 35% 51%
Pressure 29.97 in1014.9 mb 30.18 in1022.0 mb 29.97 in1014.9 mb -
Hour Temp Dew Point Humidity Winds Wind Gusts Pressure Precip Precip Rate Daily Precip Total
07:33 PM 83.8°F28.8°C 56.5°F13.6°C 40% 3.9 mph SW6.3 kmh SW 12.0 mph19.3 kmh 29.97 in1014.9 mb 0.00 in0.0 mm 0.00 in/hr0.0 mm/hr 0.00 in0.0 mm
07:28 PM 84.2°F29.0°C 56.0°F13.3°C 38% 5.5 mph WSW8.9 kmh WSW 12.0 mph19.3 kmh 30.00 in1015.9 mb 0.00 in0.0 mm 0.00 in/hr0.0 mm/hr 0.00 in0.0 mm
07:23 PM 84.4°F29.1°C 57.0°F13.9°C 40% 2.8 mph SW4.5 kmh SW 12.0 mph19.3 kmh 30.00 in1015.9 mb 0.00 in0.0 mm 0.00 in/hr0.0 mm/hr 0.00 in0.0 mm
07:18 PM 84.4°F29.1°C 57.0°F13.9°C 40% 4.3 mph SW6.9 kmh SW 12.0 mph19.3 kmh 30.00 in1015.9 mb 0.00 in0.0 mm 0.00 in/hr0.0 mm/hr 0.00 in0.0 mm
07:13 PM 84.4°F29.1°C 57.0°F13.9°C 40% 2.8 mph SW4.5 kmh SW 9.9 mph15.9 kmh 29.97 in1014.9 mb 0.00 in0.0 mm 0.00 in/hr0.0 mm/hr 0.00 in0.0 mm
07:08 PM 84.4°F29.1°C 56.1°F13.4°C 38% 4.3 mph SSW6.9 kmh SSW 11.1 mph17.9 kmh 29.97 in1014.9 mb 0.00 in0.0 mm 0.00 in/hr0.0 mm/hr 0.00 in0.0 mm
07:03 PM 84.6°F29.2°C 56.3°F13.5°C 38% 2.8 mph WSW4.5 kmh WSW 11.1 mph17.9 kmh 29.97 in1014.9 mb 0.00 in0.0 mm 0.00 in/hr0.0 mm/hr 0.00 in0.0 mm
06:58 PM 84.6°F29.2°C 56.3°F13.5°C 38% 3.4 mph SW5.5 kmh SW 9.9 mph15.9 kmh 29.97 in1014.9 mb 0.00 in0.0 mm 0.00 in/hr0.0 mm/hr 0.00 in0.0 mm
06:53 PM 84.7°F29.3°C 56.3°F13.5°C 38% 3.9 mph SW6.3 kmh SW 9.9 mph15.9 kmh 29.97 in1014.9 mb 0.00 in0.0 mm 0.00 in/hr0.0 mm/hr 0.00 in0.0 mm
06:48 PM 84.7°F29.3°C 56.3°F13.5°C 38% 3.9 mph SW6.3 kmh SW 12.0 mph19.3 kmh 29.97 in1014.9 mb 0.00 in0.0 mm 0.00 in/hr0.0 mm/hr 0.00 in0.0 mm
06:43 PM 84.9°F29.4°C 56.5°F13.6°C 38% 4.8 mph SSE7.7 kmh SSE 12.0 mph19.3 kmh 29.97 in1014.9 mb 0.00 in0.0 mm 0.00 in/hr0.0 mm/hr 0.00 in0.0 mm
06:38 PM 84.9°F29.4°C 56.5°F13.6°C 38% 4.5 mph SSW7.2 kmh SSW 16.4 mph26.4 kmh 29.97 in1014.9 mb 0.00 in0.0 mm 0.00 in/hr0.0 mm/hr 0.00 in0.0 mm
06:32 PM 85.1°F29.5°C 56.6°F13.7°C 38% 4.9 mph S7.9 kmh S 16.4 mph26.4 kmh 29.97 in1014.9 mb 0.00 in0.0 mm 0.00 in/hr0.0 mm/hr 0.00 in0.0 mm
06:27 PM 85.3°F29.6°C 56.8°F13.8°C 38% 5.1 mph SSW8.2 kmh SSW 17.6 mph28.3 kmh 29.97 in1014.9 mb 0.00 in0.0 mm 0.00 in/hr0.0 mm/hr 0.00 in0.0 mm
06:21 PM 85.5°F29.7°C 56.9°F13.8°C 38% 7.0 mph S11.3 kmh S 17.6 mph28.3 kmh 29.97 in1014.9 mb 0.00 in0.0 mm 0.00 in/hr0.0 mm/hr 0.00 in0.0 mm
06:16 PM 85.6°F29.8°C 57.0°F13.9°C 38% 6.2 mph S10.0 kmh S 18.1 mph29.1 kmh 29.97 in1014.9 mb 0.00 in0.0 mm 0.00 in/hr0.0 mm/hr 0.00 in0.0 mm
06:11 PM 85.6°F29.8°C 57.0°F13.9°C 38% 7.2 mph S11.6 kmh S 18.1 mph29.1 kmh 30.00 in1015.9 mb 0.00 in0.0 mm 0.00 in/hr0.0 mm/hr 0.00 in0.0 mm
06:06 PM 85.6°F29.8°C 57.0°F13.9°C 38% 4.3 mph S6.9 kmh S 15.1 mph24.3 kmh 30.00 in1015.9 mb 0.00 in0.0 mm 0.00 in/hr0.0 mm/hr 0.00 in0.0 mm
06:01 PM 85.8°F29.9°C 58.0°F14.4°C 39% 6.8 mph SSW10.9 kmh SSW 11.1 mph17.9 kmh 30.00 in1015.9 mb 0.00 in0.0 mm 0.00 in/hr0.0 mm/hr 0.00 in0.0 mm
05:56 PM 85.8°F29.9°C 58.8°F14.9°C 40% 2.8 mph WSW4.5 kmh WSW 13.2 mph21.2 kmh 30.00 in1015.9 mb 0.00 in0.0 mm 0.00 in/hr0.0 mm/hr 0.00 in0.0 mm
05:51 PM 85.6°F29.8°C 57.8°F14.3°C 39% 4.6 mph SW7.4 kmh SW 13.2 mph21.2 kmh 30.00 in1015.9 mb 0.00 in0.0 mm 0.00 in/hr0.0 mm/hr 0.00 in0.0 mm
05:46 PM 85.5°F29.7°C 56.8°F13.8°C 38% 5.3 mph SW8.5 kmh SW 11.1 mph17.9 kmh 30.00 in1015.9 mb 0.00 in0.0 mm 0.00 in/hr0.0 mm/hr 0.00 in0.0 mm
05:41 PM 85.5°F29.7°C 56.8°F13.8°C 38% 5.4 mph WSW8.7 kmh WSW 11.4 mph18.3 kmh 30.00 in1015.9 mb 0.00 in0.0 mm 0.00 in/hr0.0 mm/hr 0.00 in0.0 mm
05:35 PM 85.6°F29.8°C 56.9°F13.8°C 38% 3.4 mph SW5.5 kmh SW 12.6 mph20.3 kmh 30.00 in1015.9 mb 0.00 in0.0 mm 0.00 in/hr0.0 mm/hr 0.00 in0.0 mm
05:30 PM 85.8°F29.9°C 57.0°F13.9°C 38% 4.9 mph SW7.9 kmh SW 13.9 mph22.4 kmh 30.00 in1015.9 mb 0.00 in0.0 mm 0.00 in/hr0.0 mm/hr 0.00 in0.0 mm
05:25 PM 86.0°F30.0°C 57.2°F14.0°C 38% 4.6 mph WSW7.4 kmh WSW 13.9 mph22.4 kmh 30.00 in1015.9 mb 0.00 in0.0 mm 0.00 in/hr0.0 mm/hr 0.00 in0.0 mm
05:19 PM 85.8°F29.9°C 57.0°F13.9°C 38% 3.1 mph WSW5.0 kmh WSW 11.1 mph17.9 kmh 30.00 in1015.9 mb 0.00 in0.0 mm 0.00 in/hr0.0 mm/hr 0.00 in0.0 mm
05:14 PM 85.8°F29.9°C 56.9°F13.8°C 38% 4.5 mph SW7.2 kmh SW 11.1 mph17.9 kmh 30.00 in1015.9 mb 0.00 in0.0 mm 0.00 in/hr0.0 mm/hr 0.00 in0.0 mm
05:08 PM 85.8°F29.9°C 56.9°F13.8°C 38% 3.6 mph S5.8 kmh S 15.1 mph24.3 kmh 30.00 in1015.9 mb 0.00 in0.0 mm 0.00 in/hr0.0 mm/hr 0.00 in0.0 mm
05:03 PM 85.8°F29.9°C 56.9°F13.8°C 38% 5.0 mph S8.0 kmh S 15.1 mph24.3 kmh 30.00 in1015.9 mb 0.00 in0.0 mm 0.00 in/hr0.0 mm/hr 0.00 in0.0 mm
04:58 PM 85.8°F29.9°C 56.0°F13.3°C 36% 7.3 mph S11.7 kmh S 12.0 mph19.3 kmh 30.03 in1016.9 mb 0.00 in0.0 mm 0.00 in/hr0.0 mm/hr 0.00 in0.0 mm
04:53 PM 85.8°F29.9°C 56.0°F13.3°C 37% 5.0 mph SW8.0 kmh SW 17.6 mph28.3 kmh 30.03 in1016.9 mb 0.00 in0.0 mm 0.00 in/hr0.0 mm/hr 0.00 in0.0 mm
04:48 PM 86.0°F30.0°C 56.2°F13.4°C 37% 8.0 mph SSW12.9 kmh SSW 17.6 mph28.3 kmh 30.03 in1016.9 mb 0.00 in0.0 mm 0.00 in/hr0.0 mm/hr 0.00 in0.0 mm
04:43 PM 86.2°F30.1°C 56.4°F13.6°C 37% 5.7 mph S9.2 kmh S 14.4 mph23.2 kmh 30.03 in1016.9 mb 0.00 in0.0 mm 0.00 in/hr0.0 mm/hr 0.00 in0.0 mm
04:37 PM 86.0°F30.0°C 56.3°F13.5°C 37% 5.6 mph S9.0 kmh S 11.4 mph18.3 kmh 30.03 in1016.9 mb 0.00 in0.0 mm 0.00 in/hr0.0 mm/hr 0.00 in0.0 mm
04:32 PM 85.8°F29.9°C 56.1°F13.4°C 37% 5.2 mph SSW8.4 kmh SSW 11.4 mph18.3 kmh 30.03 in1016.9 mb 0.00 in0.0 mm 0.00 in/hr0.0 mm/hr 0.00 in0.0 mm
04:27 PM 85.8°F29.9°C 56.1°F13.4°C 37% 4.5 mph WNW7.2 kmh WNW 14.4 mph23.2 kmh 30.03 in1016.9 mb 0.00 in0.0 mm 0.00 in/hr0.0 mm/hr 0.00 in0.0 mm
04:22 PM 85.8°F29.9°C 56.1°F13.4°C 37% 5.9 mph S9.5 kmh S 15.1 mph24.3 kmh 30.03 in1016.9 mb 0.00 in0.0 mm 0.00 in/hr0.0 mm/hr 0.00 in0.0 mm
04:17 PM 85.8°F29.9°C 56.2°F13.4°C 37% 6.6 mph WSW10.6 kmh WSW 15.1 mph24.3 kmh 30.03 in1016.9 mb 0.00 in0.0 mm 0.00 in/hr0.0 mm/hr 0.00 in0.0 mm
04:12 PM 86.0°F30.0°C 57.2°F14.0°C 38% 4.4 mph SW7.1 kmh SW 15.1 mph24.3 kmh 30.03 in1016.9 mb 0.00 in0.0 mm 0.00 in/hr0.0 mm/hr 0.00 in0.0 mm
04:07 PM 85.8°F29.9°C 56.2°F13.4°C 37% 6.2 mph SW10.0 kmh SW 15.1 mph24.3 kmh 30.03 in1016.9 mb 0.00 in0.0 mm 0.00 in/hr0.0 mm/hr 0.00 in0.0 mm
04:02 PM 85.6°F29.8°C 56.9°F13.8°C 38% Calm Calm 15.1 mph24.3 kmh 30.03 in1016.9 mb 0.00 in0.0 mm 0.00 in/hr0.0 mm/hr 0.00 in0.0 mm
03:57 PM 85.6°F29.8°C 55.1°F12.8°C 36% 3.2 mph SW5.1 kmh SW 18.1 mph29.1 kmh 30.03 in1016.9 mb 0.00 in0.0 mm 0.00 in/hr0.0 mm/hr 0.00 in0.0 mm
03:52 PM 85.8°F29.9°C 55.3°F12.9°C 36% 4.9 mph WSW7.9 kmh WSW 18.1 mph29.1 kmh 30.03 in1016.9 mb 0.00 in0.0 mm 0.00 in/hr0.0 mm/hr 0.00 in0.0 mm
03:47 PM 86.0°F30.0°C 55.5°F13.1°C 36% 6.9 mph SW11.1 kmh SW 12.0 mph19.3 kmh 30.03 in1016.9 mb 0.00 in0.0 mm 0.00 in/hr0.0 mm/hr 0.00 in0.0 mm
03:42 PM 86.0°F30.0°C 55.5°F13.1°C 36% 2.8 mph SW4.5 kmh SW 9.9 mph15.9 kmh 30.03 in1016.9 mb 0.00 in0.0 mm 0.00 in/hr0.0 mm/hr 0.00 in0.0 mm
03:37 PM 86.0°F30.0°C 55.6°F13.1°C 36% 4.3 mph WSW6.9 kmh WSW 16.9 mph27.2 kmh 30.03 in1016.9 mb 0.00 in0.0 mm 0.00 in/hr0.0 mm/hr 0.00 in0.0 mm
03:32 PM 86.2°F30.1°C 54.8°F12.7°C 35% 8.0 mph SW12.9 kmh SW 19.4 mph31.2 kmh 30.03 in1016.9 mb 0.00 in0.0 mm 0.00 in/hr0.0 mm/hr 0.00 in0.0 mm
03:27 PM 86.5°F30.3°C 56.0°F13.3°C 36% 5.4 mph WSW8.7 kmh WSW 19.4 mph31.2 kmh 30.03 in1016.9 mb 0.00 in0.0 mm 0.00 in/hr0.0 mm/hr 0.00 in0.0 mm
03:22 PM 86.5°F30.3°C 56.1°F13.4°C 36% 5.4 mph S8.7 kmh S 14.4 mph23.2 kmh 30.03 in1016.9 mb 0.00 in0.0 mm 0.00 in/hr0.0 mm/hr 0.00 in0.0 mm
03:16 PM 86.2°F30.1°C 55.8°F13.2°C 36% 5.9 mph S9.5 kmh S 14.4 mph23.2 kmh 30.03 in1016.9 mb 0.00 in0.0 mm 0.00 in/hr0.0 mm/hr 0.00 in0.0 mm
03:11 PM 86.2°F30.1°C 55.8°F13.2°C 36% 3.7 mph S6.0 kmh S 10.4 mph16.7 kmh 30.03 in1016.9 mb 0.00 in0.0 mm 0.00 in/hr0.0 mm/hr 0.00 in0.0 mm
03:06 PM 86.2°F30.1°C 55.8°F13.2°C 36% 3.7 mph S6.0 kmh S 10.4 mph16.7 kmh 30.03 in1016.9 mb 0.00 in0.0 mm 0.00 in/hr0.0 mm/hr 0.00 in0.0 mm
03:01 PM 86.2°F30.1°C 55.9°F13.3°C 36% 4.6 mph SSW7.4 kmh SSW 10.4 mph16.7 kmh 30.03 in1016.9 mb 0.00 in0.0 mm 0.00 in/hr0.0 mm/hr 0.00 in0.0 mm
02:56 PM 86.4°F30.2°C 55.1°F12.8°C 35% 4.7 mph WSW7.6 kmh WSW 14.4 mph23.2 kmh 30.03 in1016.9 mb 0.00 in0.0 mm 0.00 in/hr0.0 mm/hr 0.00 in0.0 mm
02:51 PM 86.5°F30.3°C 56.2°F13.4°C 36% 3.7 mph W6.0 kmh W 14.4 mph23.2 kmh 30.03 in1016.9 mb 0.00 in0.0 mm 0.00 in/hr0.0 mm/hr 0.00 in0.0 mm
02:45 PM 86.5°F30.3°C 56.2°F13.4°C 36% 3.2 mph S5.1 kmh S 12.0 mph19.3 kmh 30.03 in1016.9 mb 0.00 in0.0 mm 0.00 in/hr0.0 mm/hr 0.00 in0.0 mm
02:39 PM 86.2°F30.1°C 55.9°F13.3°C 36% 5.7 mph SSW9.2 kmh SSW 15.1 mph24.3 kmh 30.03 in1016.9 mb 0.00 in0.0 mm 0.00 in/hr0.0 mm/hr 0.00 in0.0 mm
02:34 PM 86.2°F30.1°C 56.0°F13.3°C 36% 6.4 mph S10.3 kmh S 15.1 mph24.3 kmh 30.03 in1016.9 mb 0.00 in0.0 mm 0.00 in/hr0.0 mm/hr 0.00 in0.0 mm
02:29 PM 86.5°F30.3°C 56.2°F13.4°C 36% 4.6 mph WSW7.4 kmh WSW 14.4 mph23.2 kmh 30.03 in1016.9 mb 0.00 in0.0 mm 0.00 in/hr0.0 mm/hr 0.00 in0.0 mm
02:23 PM 86.4°F30.2°C 56.2°F13.4°C 36% 6.0 mph SW9.7 kmh SW 9.9 mph15.9 kmh 30.03 in1016.9 mb 0.00 in0.0 mm 0.00 in/hr0.0 mm/hr 0.00 in0.0 mm
02:18 PM 86.5°F30.3°C 56.3°F13.5°C 36% 3.0 mph SW4.8 kmh SW 9.2 mph14.8 kmh 30.03 in1016.9 mb 0.00 in0.0 mm 0.00 in/hr0.0 mm/hr 0.00 in0.0 mm
02:12 PM 86.5°F30.3°C 56.3°F13.5°C 36% 4.6 mph WSW7.4 kmh WSW 11.4 mph18.3 kmh 30.03 in1016.9 mb 0.00 in0.0 mm 0.00 in/hr0.0 mm/hr 0.00 in0.0 mm
02:08 PM 86.2°F30.1°C 56.9°F13.8°C 37% 4.8 mph S7.7 kmh S 11.4 mph18.3 kmh 30.03 in1016.9 mb 0.00 in0.0 mm 0.00 in/hr0.0 mm/hr 0.00 in0.0 mm
02:02 PM 85.6°F29.8°C 56.4°F13.6°C 37% 6.0 mph WSW9.7 kmh WSW 11.4 mph18.3 kmh 30.03 in1016.9 mb 0.00 in0.0 mm 0.00 in/hr0.0 mm/hr 0.00 in0.0 mm
01:58 PM 85.5°F29.7°C 55.4°F13.0°C 36% 4.3 mph SW6.9 kmh SW 13.2 mph21.2 kmh 30.06 in1017.9 mb 0.00 in0.0 mm 0.00 in/hr0.0 mm/hr 0.00 in0.0 mm
01:52 PM 85.5°F29.7°C 55.4°F13.0°C 36% 5.4 mph SSW8.7 kmh SSW 17.6 mph28.3 kmh 30.06 in1017.9 mb 0.00 in0.0 mm 0.00 in/hr0.0 mm/hr 0.00 in0.0 mm
01:48 PM 85.6°F29.8°C 55.5°F13.1°C 36% 4.6 mph WSW7.4 kmh WSW 17.6 mph28.3 kmh 30.06 in1017.9 mb 0.00 in0.0 mm 0.00 in/hr0.0 mm/hr 0.00 in0.0 mm
01:42 PM 86.0°F30.0°C 55.9°F13.3°C 36% 6.2 mph SW10.0 kmh SW 15.1 mph24.3 kmh 30.06 in1017.9 mb 0.00 in0.0 mm 0.00 in/hr0.0 mm/hr 0.00 in0.0 mm
01:37 PM 86.0°F30.0°C 55.9°F13.3°C 36% 5.4 mph S8.7 kmh S 12.0 mph19.3 kmh 30.06 in1017.9 mb 0.00 in0.0 mm 0.00 in/hr0.0 mm/hr 0.00 in0.0 mm
01:31 PM 86.2°F30.1°C 56.1°F13.4°C 36% 3.9 mph SSW6.3 kmh SSW 15.1 mph24.3 kmh 30.06 in1017.9 mb 0.00 in0.0 mm 0.00 in/hr0.0 mm/hr 0.00 in0.0 mm
01:26 PM 86.4°F30.2°C 57.2°F14.0°C 37% 6.2 mph S10.0 kmh S 15.1 mph24.3 kmh 30.06 in1017.9 mb 0.00 in0.0 mm 0.00 in/hr0.0 mm/hr 0.00 in0.0 mm
01:21 PM 86.0°F30.0°C 55.9°F13.3°C 36% 8.1 mph S13.0 kmh S 15.1 mph24.3 kmh 30.06 in1017.9 mb 0.00 in0.0 mm 0.00 in/hr0.0 mm/hr 0.00 in0.0 mm
01:16 PM 86.0°F30.0°C 56.9°F13.8°C 37% 6.3 mph S10.1 kmh S 12.0 mph19.3 kmh 30.06 in1017.9 mb 0.00 in0.0 mm 0.00 in/hr0.0 mm/hr 0.00 in0.0 mm
01:11 PM 85.8°F29.9°C 56.7°F13.7°C 37% 5.3 mph SSW8.5 kmh SSW 13.9 mph22.4 kmh 30.06 in1017.9 mb 0.00 in0.0 mm 0.00 in/hr0.0 mm/hr 0.00 in0.0 mm
01:06 PM 85.8°F29.9°C 56.7°F13.7°C 37% 5.5 mph S8.9 kmh S 13.9 mph22.4 kmh 30.06 in1017.9 mb 0.00 in0.0 mm 0.00 in/hr0.0 mm/hr 0.00 in0.0 mm
01:01 PM 85.8°F29.9°C 56.7°F13.7°C 37% 5.9 mph S9.5 kmh S 15.1 mph24.3 kmh 30.06 in1017.9 mb 0.00 in0.0 mm 0.00 in/hr0.0 mm/hr 0.00 in0.0 mm
12:56 PM 85.6°F29.8°C 56.5°F13.6°C 37% 5.7 mph S9.2 kmh S 15.1 mph24.3 kmh 30.06 in1017.9 mb 0.00 in0.0 mm 0.00 in/hr0.0 mm/hr 0.00 in0.0 mm
12:49 PM 85.8°F29.9°C 58.4°F14.7°C 40% 7.0 mph S11.3 kmh S 12.0 mph19.3 kmh 30.06 in1017.9 mb 0.00 in0.0 mm 0.00 in/hr0.0 mm/hr 0.00 in0.0 mm
12:44 PM 85.1°F29.5°C 57.8°F14.3°C 40% 4.6 mph S7.4 kmh S 10.4 mph16.7 kmh 30.06 in1017.9 mb 0.00 in0.0 mm 0.00 in/hr0.0 mm/hr 0.00 in0.0 mm
12:39 PM 84.6°F29.2°C 56.5°F13.6°C 39% 4.3 mph WSW6.9 kmh WSW 13.9 mph22.4 kmh 30.09 in1019.0 mb 0.00 in0.0 mm 0.00 in/hr0.0 mm/hr 0.00 in0.0 mm
12:34 PM 84.6°F29.2°C 55.7°F13.2°C 37% 4.5 mph SSW7.2 kmh SSW 13.9 mph22.4 kmh 30.09 in1019.0 mb 0.00 in0.0 mm 0.00 in/hr0.0 mm/hr 0.00 in0.0 mm
12:29 PM 84.7°F29.3°C 56.6°F13.7°C 39% 4.2 mph SW6.8 kmh SW 14.4 mph23.2 kmh 30.09 in1019.0 mb 0.00 in0.0 mm 0.00 in/hr0.0 mm/hr 0.00 in0.0 mm
12:24 PM 84.6°F29.2°C 56.5°F13.6°C 39% 4.5 mph SSW7.2 kmh SSW 14.4 mph23.2 kmh 30.09 in1019.0 mb 0.00 in0.0 mm 0.00 in/hr0.0 mm/hr 0.00 in0.0 mm
12:19 PM 84.6°F29.2°C 57.4°F14.1°C 40% 6.1 mph SW9.8 kmh SW 14.4 mph23.2 kmh 30.09 in1019.0 mb 0.00 in0.0 mm 0.00 in/hr0.0 mm/hr 0.00 in0.0 mm
12:14 PM 84.4°F29.1°C 57.2°F14.0°C 40% 4.8 mph SSW7.7 kmh SSW 13.2 mph21.2 kmh 30.09 in1019.0 mb 0.00 in0.0 mm 0.00 in/hr0.0 mm/hr 0.00 in0.0 mm
12:09 PM 84.0°F28.9°C 56.9°F13.8°C 40% 4.0 mph S6.4 kmh S 11.1 mph17.9 kmh 30.09 in1019.0 mb 0.00 in0.0 mm 0.00 in/hr0.0 mm/hr 0.00 in0.0 mm
12:04 PM 83.7°F28.7°C 57.4°F14.1°C 41% 4.6 mph SW7.4 kmh SW 13.9 mph22.4 kmh 30.09 in1019.0 mb 0.00 in0.0 mm 0.00 in/hr0.0 mm/hr 0.00 in0.0 mm
11:59 AM 83.3°F28.5°C 55.4°F13.0°C 39% 4.5 mph WSW7.2 kmh WSW 18.1 mph29.1 kmh 30.09 in1019.0 mb 0.00 in0.0 mm 0.00 in/hr0.0 mm/hr 0.00 in0.0 mm
11:54 AM 83.1°F28.4°C 56.1°F13.4°C 40% 2.9 mph WNW4.7 kmh WNW 18.1 mph29.1 kmh 30.09 in1019.0 mb 0.00 in0.0 mm 0.00 in/hr0.0 mm/hr 0.00 in0.0 mm
11:49 AM 83.1°F28.4°C 56.9°F13.8°C 41% 5.3 mph SW8.5 kmh SW 13.2 mph21.2 kmh 30.09 in1019.0 mb 0.00 in0.0 mm 0.00 in/hr0.0 mm/hr 0.00 in0.0 mm
11:44 AM 82.9°F28.3°C 55.9°F13.3°C 40% 4.0 mph WSW6.4 kmh WSW 12.0 mph19.3 kmh 30.09 in1019.0 mb 0.00 in0.0 mm 0.00 in/hr0.0 mm/hr 0.00 in0.0 mm
11:39 AM 83.3°F28.5°C 57.1°F13.9°C 41% 6.6 mph SSE10.6 kmh SSE 12.0 mph19.3 kmh 30.09 in1019.0 mb 0.00 in0.0 mm 0.00 in/hr0.0 mm/hr 0.00 in0.0 mm
11:34 AM 83.3°F28.5°C 58.7°F14.8°C 43% 5.1 mph S8.2 kmh S 11.4 mph18.3 kmh 30.09 in1019.0 mb 0.00 in0.0 mm 0.00 in/hr0.0 mm/hr 0.00 in0.0 mm
11:28 AM 82.8°F28.2°C 59.0°F15.0°C 45% 5.2 mph S8.4 kmh S 11.1 mph17.9 kmh 30.09 in1019.0 mb 0.00 in0.0 mm 0.00 in/hr0.0 mm/hr 0.00 in0.0 mm
11:23 AM 82.2°F27.9°C 58.4°F14.7°C 45% 3.3 mph SW5.3 kmh SW 14.4 mph23.2 kmh 30.09 in1019.0 mb 0.00 in0.0 mm 0.00 in/hr0.0 mm/hr 0.00 in0.0 mm
11:18 AM 82.0°F27.8°C 56.7°F13.7°C 42% 6.0 mph SW9.7 kmh SW 14.4 mph23.2 kmh 30.09 in1019.0 mb 0.00 in0.0 mm 0.00 in/hr0.0 mm/hr 0.00 in0.0 mm
11:13 AM 82.0°F27.8°C 56.7°F13.7°C 42% 3.0 mph S4.8 kmh S 15.1 mph24.3 kmh 30.12 in1020.0 mb 0.00 in0.0 mm 0.00 in/hr0.0 mm/hr 0.00 in0.0 mm
11:07 AM 82.0°F27.8°C 60.5°F15.8°C 48% 6.1 mph S9.8 kmh S 15.1 mph24.3 kmh 30.12 in1020.0 mb 0.00 in0.0 mm 0.00 in/hr0.0 mm/hr 0.00 in0.0 mm
11:02 AM 81.5°F27.5°C 60.0°F15.6°C 48% 5.8 mph S9.3 kmh S 12.0 mph19.3 kmh 30.12 in1020.0 mb 0.00 in0.0 mm 0.00 in/hr0.0 mm/hr 0.00 in0.0 mm
10:57 AM 81.0°F27.2°C 56.6°F13.7°C 43% 4.8 mph SW7.7 kmh SW 11.4 mph18.3 kmh 30.12 in1020.0 mb 0.00 in0.0 mm 0.00 in/hr0.0 mm/hr 0.00 in0.0 mm
10:52 AM 81.0°F27.2°C 56.6°F13.7°C 43% 4.1 mph S6.6 kmh S 8.7 mph14.0 kmh 30.12 in1020.0 mb 0.00 in0.0 mm 0.00 in/hr0.0 mm/hr 0.00 in0.0 mm
10:47 AM 81.3°F27.4°C 59.8°F15.4°C 48% 2.8 mph SW4.5 kmh SW 8.0 mph12.9 kmh 30.12 in1020.0 mb 0.00 in0.0 mm 0.00 in/hr0.0 mm/hr 0.00 in0.0 mm
10:42 AM 81.0°F27.2°C 59.5°F15.3°C 48% 2.9 mph SW4.7 kmh SW 11.4 mph18.3 kmh 30.12 in1020.0 mb 0.00 in0.0 mm 0.00 in/hr0.0 mm/hr 0.00 in0.0 mm
10:36 AM 81.1°F27.3°C 59.6°F15.3°C 48% 4.5 mph S7.2 kmh S 12.0 mph19.3 kmh 30.12 in1020.0 mb 0.00 in0.0 mm 0.00 in/hr0.0 mm/hr 0.00 in0.0 mm
10:31 AM 81.3°F27.4°C 60.5°F15.8°C 49% 4.4 mph SSW7.1 kmh SSW 12.0 mph19.3 kmh 30.12 in1020.0 mb 0.00 in0.0 mm 0.00 in/hr0.0 mm/hr 0.00 in0.0 mm
10:26 AM 81.3°F27.4°C 62.5°F16.9°C 53% 3.0 mph SW4.8 kmh SW 8.7 mph14.0 kmh 30.12 in1020.0 mb 0.00 in0.0 mm 0.00 in/hr0.0 mm/hr 0.00 in0.0 mm
10:21 AM 80.8°F27.1°C 62.0°F16.7°C 53% 4.2 mph SW6.8 kmh SW 10.4 mph16.7 kmh 30.12 in1020.0 mb 0.00 in0.0 mm 0.00 in/hr0.0 mm/hr 0.00 in0.0 mm
10:16 AM 80.2°F26.8°C 61.5°F16.4°C 53% 4.1 mph SSW6.6 kmh SSW 11.1 mph17.9 kmh 30.12 in1020.0 mb 0.00 in0.0 mm 0.00 in/hr0.0 mm/hr 0.00 in0.0 mm
10:11 AM 80.1°F26.7°C 62.0°F16.7°C 54% 4.4 mph S7.1 kmh S 11.1 mph17.9 kmh 30.12 in1020.0 mb 0.00 in0.0 mm 0.00 in/hr0.0 mm/hr 0.00 in0.0 mm
10:06 AM 79.9°F26.6°C 63.1°F17.3°C 56% 4.2 mph S6.8 kmh S 10.4 mph16.7 kmh 30.12 in1020.0 mb 0.00 in0.0 mm 0.00 in/hr0.0 mm/hr 0.00 in0.0 mm
10:01 AM 79.3°F26.3°C 61.9°F16.6°C 55% Calm Calm 10.4 mph16.7 kmh 30.12 in1020.0 mb 0.00 in0.0 mm 0.00 in/hr0.0 mm/hr 0.00 in0.0 mm
09:55 AM 79.0°F26.1°C 62.2°F16.8°C 56% 3.7 mph SSW6.0 kmh SSW 11.4 mph18.3 kmh 30.12 in1020.0 mb 0.00 in0.0 mm 0.00 in/hr0.0 mm/hr 0.00 in0.0 mm
09:50 AM 78.6°F25.9°C 62.4°F16.9°C 57% 4.6 mph SW7.4 kmh SW 11.4 mph18.3 kmh 30.12 in1020.0 mb 0.00 in0.0 mm 0.00 in/hr0.0 mm/hr 0.00 in0.0 mm
09:45 AM 78.3°F25.7°C 62.1°F16.7°C 57% 2.8 mph SSW4.5 kmh SSW 9.9 mph15.9 kmh 30.12 in1020.0 mb 0.00 in0.0 mm 0.00 in/hr0.0 mm/hr 0.00 in0.0 mm
09:40 AM 77.9°F25.5°C 61.7°F16.5°C 57% Calm Calm 7.4 mph11.9 kmh 30.15 in1021.0 mb 0.00 in0.0 mm 0.00 in/hr0.0 mm/hr 0.00 in0.0 mm
09:34 AM 77.7°F25.4°C 61.5°F16.4°C 57% 2.8 mph SW4.5 kmh SW 8.7 mph14.0 kmh 30.15 in1021.0 mb 0.00 in0.0 mm 0.00 in/hr0.0 mm/hr 0.00 in0.0 mm
09:29 AM 77.4°F25.2°C 62.4°F16.9°C 60% 4.1 mph SW6.6 kmh SW 8.7 mph14.0 kmh 30.15 in1021.0 mb 0.00 in0.0 mm 0.00 in/hr0.0 mm/hr 0.00 in0.0 mm
09:24 AM 77.0°F25.0°C 62.6°F17.0°C 61% 2.8 mph S4.5 kmh S 6.7 mph10.8 kmh 30.15 in1021.0 mb 0.00 in0.0 mm 0.00 in/hr0.0 mm/hr 0.00 in0.0 mm
09:19 AM 76.6°F24.8°C 61.1°F16.2°C 58% Calm Calm 6.7 mph10.8 kmh 30.15 in1021.0 mb 0.00 in0.0 mm 0.00 in/hr0.0 mm/hr 0.00 in0.0 mm
09:14 AM 76.6°F24.8°C 63.3°F17.4°C 63% 2.8 mph SW4.5 kmh SW 5.5 mph8.9 kmh 30.15 in1021.0 mb 0.00 in0.0 mm 0.00 in/hr0.0 mm/hr 0.00 in0.0 mm
09:09 AM 76.3°F24.6°C 63.5°F17.5°C 64% 3.0 mph SSW4.8 kmh SSW 8.7 mph14.0 kmh 30.15 in1021.0 mb 0.00 in0.0 mm 0.00 in/hr0.0 mm/hr 0.00 in0.0 mm
09:04 AM 75.9°F24.4°C 63.1°F17.3°C 64% 4.3 mph SW6.9 kmh SW 8.7 mph14.0 kmh 30.15 in1021.0 mb 0.00 in0.0 mm 0.00 in/hr0.0 mm/hr 0.00 in0.0 mm
08:59 AM 75.6°F24.2°C 62.8°F17.1°C 64% Calm Calm 8.0 mph12.9 kmh 30.15 in1021.0 mb 0.00 in0.0 mm 0.00 in/hr0.0 mm/hr 0.00 in0.0 mm
08:54 AM 75.0°F23.9°C 62.8°F17.1°C 65% 5.0 mph SSE8.0 kmh SSE 7.4 mph11.9 kmh 30.15 in1021.0 mb 0.00 in0.0 mm 0.00 in/hr0.0 mm/hr 0.00 in0.0 mm
08:49 AM 74.7°F23.7°C 61.4°F16.3°C 63% Calm Calm 9.9 mph15.9 kmh 30.15 in1021.0 mb 0.00 in0.0 mm 0.00 in/hr0.0 mm/hr 0.00 in0.0 mm
08:43 AM 74.3°F23.5°C 61.6°F16.4°C 64% 4.4 mph SW7.1 kmh SW 9.9 mph15.9 kmh 30.15 in1021.0 mb 0.00 in0.0 mm 0.00 in/hr0.0 mm/hr 0.00 in0.0 mm
08:38 AM 73.9°F23.3°C 61.7°F16.5°C 65% 3.0 mph SSW4.8 kmh SSW 8.7 mph14.0 kmh 30.15 in1021.0 mb 0.00 in0.0 mm 0.00 in/hr0.0 mm/hr 0.00 in0.0 mm
08:33 AM 73.8°F23.2°C 61.6°F16.4°C 65% 3.9 mph SSW6.3 kmh SSW 8.7 mph14.0 kmh 30.15 in1021.0 mb 0.00 in0.0 mm 0.00 in/hr0.0 mm/hr 0.00 in0.0 mm
08:28 AM 73.4°F23.0°C 62.7°F17.1°C 69% Calm Calm 8.0 mph12.9 kmh 30.18 in1022.0 mb 0.00 in0.0 mm 0.00 in/hr0.0 mm/hr 0.00 in0.0 mm
08:22 AM 72.9°F22.7°C 62.7°F17.1°C 70% 3.9 mph S6.3 kmh S 8.0 mph12.9 kmh 30.18 in1022.0 mb 0.00 in0.0 mm 0.00 in/hr0.0 mm/hr 0.00 in0.0 mm
08:17 AM 72.3°F22.4°C 62.6°F17.0°C 71% 3.2 mph SSW5.1 kmh SSW 8.0 mph12.9 kmh 30.18 in1022.0 mb 0.00 in0.0 mm 0.00 in/hr0.0 mm/hr 0.00 in0.0 mm
08:12 AM 71.6°F22.0°C 61.4°F16.3°C 70% Calm Calm 4.9 mph7.9 kmh 30.15 in1021.0 mb 0.00 in0.0 mm 0.00 in/hr0.0 mm/hr 0.00 in0.0 mm
08:07 AM 71.2°F21.8°C 61.9°F16.6°C 72% 2.8 mph SW4.5 kmh SW 8.0 mph12.9 kmh 30.15 in1021.0 mb 0.00 in0.0 mm 0.00 in/hr0.0 mm/hr 0.00 in0.0 mm
08:02 AM 70.7°F21.5°C 61.4°F16.3°C 72% 3.4 mph S5.5 kmh S 9.9 mph15.9 kmh 30.15 in1021.0 mb 0.00 in0.0 mm 0.00 in/hr0.0 mm/hr 0.00 in0.0 mm
07:57 AM 70.0°F21.1°C 60.8°F16.0°C 72% Calm Calm 9.9 mph15.9 kmh 30.15 in1021.0 mb 0.00 in0.0 mm 0.00 in/hr0.0 mm/hr 0.00 in0.0 mm
07:51 AM 69.4°F20.8°C 60.6°F15.9°C 73% Calm Calm 7.4 mph11.9 kmh 30.15 in1021.0 mb 0.00 in0.0 mm 0.00 in/hr0.0 mm/hr 0.00 in0.0 mm
07:46 AM 68.9°F20.5°C 59.7°F15.4°C 72% Calm Calm 5.5 mph8.9 kmh 30.15 in1021.0 mb 0.00 in0.0 mm 0.00 in/hr0.0 mm/hr 0.00 in0.0 mm
07:41 AM 68.4°F20.2°C 59.2°F15.1°C 72% Calm Calm 8.0 mph12.9 kmh 30.15 in1021.0 mb 0.00 in0.0 mm 0.00 in/hr0.0 mm/hr 0.00 in0.0 mm
07:36 AM 68.2°F20.1°C 59.0°F15.0°C 72% 2.8 mph S4.5 kmh S 8.0 mph12.9 kmh 30.15 in1021.0 mb 0.00 in0.0 mm 0.00 in/hr0.0 mm/hr 0.00 in0.0 mm
07:31 AM 67.8°F19.9°C 58.6°F14.8°C 72% 2.8 mph S4.5 kmh S 5.5 mph8.9 kmh 30.15 in1021.0 mb 0.00 in0.0 mm 0.00 in/hr0.0 mm/hr 0.00 in0.0 mm
07:26 AM 67.6°F19.8°C 58.4°F14.7°C 72% Calm Calm 5.5 mph8.9 kmh 30.15 in1021.0 mb 0.00 in0.0 mm 0.00 in/hr0.0 mm/hr 0.00 in0.0 mm
07:21 AM 67.5°F19.7°C 58.3°F14.6°C 72% Calm Calm 7.4 mph11.9 kmh 30.15 in1021.0 mb 0.00 in0.0 mm 0.00 in/hr0.0 mm/hr 0.00 in0.0 mm
07:16 AM 67.3°F19.6°C 57.6°F14.2°C 71% Calm Calm 7.4 mph11.9 kmh 30.15 in1021.0 mb 0.00 in0.0 mm 0.00 in/hr0.0 mm/hr 0.00 in0.0 mm
07:11 AM 66.9°F19.4°C 57.2°F14.0°C 71% 2.8 mph SW4.5 kmh SW 6.7 mph10.8 kmh 30.15 in1021.0 mb 0.00 in0.0 mm 0.00 in/hr0.0 mm/hr 0.00 in0.0 mm
07:06 AM 66.7°F19.3°C 56.6°F13.7°C 70% 2.8 mph S4.5 kmh S 7.4 mph11.9 kmh 30.15 in1021.0 mb 0.00 in0.0 mm 0.00 in/hr0.0 mm/hr 0.00 in0.0 mm
07:01 AM 66.6°F19.2°C 56.5°F13.6°C 70% 3.0 mph S4.8 kmh S 7.4 mph11.9 kmh 30.15 in1021.0 mb 0.00 in0.0 mm 0.00 in/hr0.0 mm/hr 0.00 in0.0 mm
06:56 AM 66.6°F19.2°C 56.5°F13.6°C 70% 2.8 mph SW4.5 kmh SW 7.4 mph11.9 kmh 30.15 in1021.0 mb 0.00 in0.0 mm 0.00 in/hr0.0 mm/hr 0.00 in0.0 mm
06:51 AM 66.4°F19.1°C 55.8°F13.2°C 68% Calm Calm 4.9 mph7.9 kmh 30.15 in1021.0 mb 0.00 in0.0 mm 0.00 in/hr0.0 mm/hr 0.00 in0.0 mm
06:46 AM 66.4°F19.1°C 55.8°F13.2°C 68% 3.1 mph S5.0 kmh S 5.5 mph8.9 kmh 30.15 in1021.0 mb 0.00 in0.0 mm 0.00 in/hr0.0 mm/hr 0.00 in0.0 mm
06:40 AM 66.2°F19.0°C 55.6°F13.1°C 68% 2.9 mph S4.7 kmh S 6.7 mph10.8 kmh 30.15 in1021.0 mb 0.00 in0.0 mm 0.00 in/hr0.0 mm/hr 0.00 in0.0 mm
06:36 AM 66.0°F18.9°C 55.4°F13.0°C 68% 3.0 mph SSE4.8 kmh SSE 8.7 mph14.0 kmh 30.15 in1021.0 mb 0.00 in0.0 mm 0.00 in/hr0.0 mm/hr 0.00 in0.0 mm
06:30 AM 65.8°F18.8°C 55.2°F12.9°C 68% 4.0 mph S6.4 kmh S 8.7 mph14.0 kmh 30.15 in1021.0 mb 0.00 in0.0 mm 0.00 in/hr0.0 mm/hr 0.00 in0.0 mm
06:25 AM 65.7°F18.7°C 54.6°F12.6°C 67% 4.2 mph S6.8 kmh S 8.0 mph12.9 kmh 30.15 in1021.0 mb 0.00 in0.0 mm 0.00 in/hr0.0 mm/hr 0.00 in0.0 mm
06:20 AM 65.7°F18.7°C 54.6°F12.6°C 67% 4.7 mph S7.6 kmh S 7.4 mph11.9 kmh 30.15 in1021.0 mb 0.00 in0.0 mm 0.00 in/hr0.0 mm/hr 0.00 in0.0 mm
06:15 AM 65.7°F18.7°C 54.6°F12.6°C 67% 4.3 mph SSE6.9 kmh SSE 6.7 mph10.8 kmh 30.15 in1021.0 mb 0.00 in0.0 mm 0.00 in/hr0.0 mm/hr 0.00 in0.0 mm
06:09 AM 65.7°F18.7°C 54.6°F12.6°C 67% 3.4 mph S5.5 kmh S 5.5 mph8.9 kmh 30.15 in1021.0 mb 0.00 in0.0 mm 0.00 in/hr0.0 mm/hr 0.00 in0.0 mm
06:05 AM 65.7°F18.7°C 54.7°F12.6°C 67% 3.8 mph S6.1 kmh S 7.4 mph11.9 kmh 30.15 in1021.0 mb 0.00 in0.0 mm 0.00 in/hr0.0 mm/hr 0.00 in0.0 mm
05:59 AM 65.7°F18.7°C 54.7°F12.6°C 67% 3.4 mph S5.5 kmh S 8.0 mph12.9 kmh 30.15 in1021.0 mb 0.00 in0.0 mm 0.00 in/hr0.0 mm/hr 0.00 in0.0 mm
05:55 AM 65.7°F18.7°C 54.2°F12.3°C 66% 4.7 mph SSE7.6 kmh SSE 8.0 mph12.9 kmh 30.15 in1021.0 mb 0.00 in0.0 mm 0.00 in/hr0.0 mm/hr 0.00 in0.0 mm
05:49 AM 65.7°F18.7°C 54.2°F12.3°C 66% 3.7 mph SSE6.0 kmh SSE 6.2 mph10.0 kmh 30.15 in1021.0 mb 0.00 in0.0 mm 0.00 in/hr0.0 mm/hr 0.00 in0.0 mm
05:44 AM 65.7°F18.7°C 54.2°F12.3°C 66% 3.1 mph S5.0 kmh S 7.4 mph11.9 kmh 30.15 in1021.0 mb 0.00 in0.0 mm 0.00 in/hr0.0 mm/hr 0.00 in0.0 mm
05:39 AM 65.5°F18.6°C 54.0°F12.2°C 66% 4.4 mph SSE7.1 kmh SSE 8.0 mph12.9 kmh 30.15 in1021.0 mb 0.00 in0.0 mm 0.00 in/hr0.0 mm/hr 0.00 in0.0 mm
05:34 AM 65.5°F18.6°C 54.0°F12.2°C 66% 4.8 mph SSE7.7 kmh SSE 8.0 mph12.9 kmh 30.15 in1021.0 mb 0.00 in0.0 mm 0.00 in/hr0.0 mm/hr 0.00 in0.0 mm
05:29 AM 65.3°F18.5°C 53.9°F12.2°C 66% 4.1 mph S6.6 kmh S 7.4 mph11.9 kmh 30.15 in1021.0 mb 0.00 in0.0 mm 0.00 in/hr0.0 mm/hr 0.00 in0.0 mm
05:24 AM 65.3°F18.5°C 53.9°F12.2°C 66% 2.8 mph S4.5 kmh S 8.0 mph12.9 kmh 30.15 in1021.0 mb 0.00 in0.0 mm 0.00 in/hr0.0 mm/hr 0.00 in0.0 mm
05:19 AM 65.1°F18.4°C 53.7°F12.1°C 66% 3.2 mph S5.1 kmh S 8.0 mph12.9 kmh 30.15 in1021.0 mb 0.00 in0.0 mm 0.00 in/hr0.0 mm/hr 0.00 in0.0 mm
05:14 AM 65.1°F18.4°C 53.7°F12.1°C 66% 3.7 mph S6.0 kmh S 8.0 mph12.9 kmh 30.15 in1021.0 mb 0.00 in0.0 mm 0.00 in/hr0.0 mm/hr 0.00 in0.0 mm
05:09 AM 64.8°F18.2°C 53.4°F11.9°C 66% 4.5 mph SSE7.2 kmh SSE 8.0 mph12.9 kmh 30.15 in1021.0 mb 0.00 in0.0 mm 0.00 in/hr0.0 mm/hr 0.00 in0.0 mm
05:04 AM 64.8°F18.2°C 53.4°F11.9°C 66% 5.0 mph S8.0 kmh S 8.0 mph12.9 kmh 30.15 in1021.0 mb 0.00 in0.0 mm 0.00 in/hr0.0 mm/hr 0.00 in0.0 mm
04:59 AM 64.4°F18.0°C 53.1°F11.7°C 66% 3.7 mph SSE6.0 kmh SSE 8.7 mph14.0 kmh 30.15 in1021.0 mb 0.00 in0.0 mm 0.00 in/hr0.0 mm/hr 0.00 in0.0 mm
04:54 AM 64.0°F17.8°C 52.7°F11.5°C 66% 4.8 mph S7.7 kmh S 8.7 mph14.0 kmh 30.15 in1021.0 mb 0.00 in0.0 mm 0.00 in/hr0.0 mm/hr 0.00 in0.0 mm
04:49 AM 63.7°F17.6°C 52.4°F11.3°C 66% 5.6 mph S9.0 kmh S 8.7 mph14.0 kmh 30.15 in1021.0 mb 0.00 in0.0 mm 0.00 in/hr0.0 mm/hr 0.00 in0.0 mm
04:44 AM 63.3°F17.4°C 51.6°F10.9°C 65% 4.7 mph S7.6 kmh S 7.4 mph11.9 kmh 30.15 in1021.0 mb 0.00 in0.0 mm 0.00 in/hr0.0 mm/hr 0.00 in0.0 mm
04:39 AM 63.1°F17.3°C 51.4°F10.8°C 65% 3.9 mph SSE6.3 kmh SSE 7.4 mph11.9 kmh 30.15 in1021.0 mb 0.00 in0.0 mm 0.00 in/hr0.0 mm/hr 0.00 in0.0 mm
04:34 AM 63.0°F17.2°C 50.8°F10.4°C 64% 3.4 mph S5.5 kmh S 6.7 mph10.8 kmh 30.15 in1021.0 mb 0.00 in0.0 mm 0.00 in/hr0.0 mm/hr 0.00 in0.0 mm
04:29 AM 63.0°F17.2°C 50.8°F10.4°C 64% 4.5 mph SSE7.2 kmh SSE 6.7 mph10.8 kmh 30.15 in1021.0 mb 0.00 in0.0 mm 0.00 in/hr0.0 mm/hr 0.00 in0.0 mm
04:24 AM 63.0°F17.2°C 50.8°F10.4°C 64% 3.3 mph S5.3 kmh S 8.0 mph12.9 kmh 30.15 in1021.0 mb 0.00 in0.0 mm 0.00 in/hr0.0 mm/hr 0.00 in0.0 mm
04:19 AM 63.0°F17.2°C 50.3°F10.2°C 63% 4.3 mph SSE6.9 kmh SSE 8.0 mph12.9 kmh 30.15 in1021.0 mb 0.00 in0.0 mm 0.00 in/hr0.0 mm/hr 0.00 in0.0 mm
04:14 AM 63.0°F17.2°C 50.3°F10.2°C 63% 3.9 mph SSE6.3 kmh SSE 5.5 mph8.9 kmh 30.15 in1021.0 mb 0.00 in0.0 mm 0.00 in/hr0.0 mm/hr 0.00 in0.0 mm
04:09 AM 63.0°F17.2°C 50.4°F10.2°C 63% 4.2 mph SSE6.8 kmh SSE 5.5 mph8.9 kmh 30.15 in1021.0 mb 0.00 in0.0 mm 0.00 in/hr0.0 mm/hr 0.00 in0.0 mm
04:04 AM 63.0°F17.2°C 50.4°F10.2°C 63% Calm Calm 5.5 mph8.9 kmh 30.15 in1021.0 mb 0.00 in0.0 mm 0.00 in/hr0.0 mm/hr 0.00 in0.0 mm
03:57 AM 63.1°F17.3°C 50.0°F10.0°C 62% Calm Calm 5.5 mph8.9 kmh 30.15 in1021.0 mb 0.00 in0.0 mm 0.00 in/hr0.0 mm/hr 0.00 in0.0 mm
03:52 AM 63.1°F17.3°C 50.0°F10.0°C 62% 2.8 mph S4.5 kmh S 5.5 mph8.9 kmh 30.15 in1021.0 mb 0.00 in0.0 mm 0.00 in/hr0.0 mm/hr 0.00 in0.0 mm
03:47 AM 63.1°F17.3°C 50.0°F10.0°C 62% 3.3 mph S5.3 kmh S 5.5 mph8.9 kmh 30.15 in1021.0 mb 0.00 in0.0 mm 0.00 in/hr0.0 mm/hr 0.00 in0.0 mm
03:42 AM 63.1°F17.3°C 50.0°F10.0°C 62% 2.8 mph S4.5 kmh S 5.5 mph8.9 kmh 30.15 in1021.0 mb 0.00 in0.0 mm 0.00 in/hr0.0 mm/hr 0.00 in0.0 mm
03:36 AM 63.3°F17.4°C 49.7°F9.8°C 61% 2.8 mph S4.5 kmh S 4.3 mph6.9 kmh 30.15 in1021.0 mb 0.00 in0.0 mm 0.00 in/hr0.0 mm/hr 0.00 in0.0 mm
03:31 AM 63.5°F17.5°C 49.9°F9.9°C 61% Calm Calm -- 30.15 in1021.0 mb 0.00 in0.0 mm 0.00 in/hr0.0 mm/hr 0.00 in0.0 mm
03:26 AM 63.5°F17.5°C 49.9°F9.9°C 61% Calm Calm -- 30.15 in1021.0 mb 0.00 in0.0 mm 0.00 in/hr0.0 mm/hr 0.00 in0.0 mm
03:21 AM 63.7°F17.6°C 50.1°F10.1°C 61% Calm Calm -- 30.15 in1021.0 mb 0.00 in0.0 mm 0.00 in/hr0.0 mm/hr 0.00 in0.0 mm
03:16 AM 63.9°F17.7°C 49.7°F9.8°C 60% Calm Calm -- 30.15 in1021.0 mb 0.00 in0.0 mm 0.00 in/hr0.0 mm/hr 0.00 in0.0 mm
03:11 AM 64.0°F17.8°C 49.8°F9.9°C 60% Calm Calm -- 30.15 in1021.0 mb 0.00 in0.0 mm 0.00 in/hr0.0 mm/hr 0.00 in0.0 mm
03:05 AM 64.0°F17.8°C 49.9°F9.9°C 60% Calm Calm -- 30.15 in1021.0 mb 0.00 in0.0 mm 0.00 in/hr0.0 mm/hr 0.00 in0.0 mm
03:00 AM 64.2°F17.9°C 50.1°F10.1°C 60% Calm Calm -- 30.15 in1021.0 mb 0.00 in0.0 mm 0.00 in/hr0.0 mm/hr 0.00 in0.0 mm
02:55 AM 64.4°F18.0°C 49.7°F9.8°C 59% Calm Calm -- 30.15 in1021.0 mb 0.00 in0.0 mm 0.00 in/hr0.0 mm/hr 0.00 in0.0 mm
02:50 AM 64.8°F18.2°C 50.1°F10.1°C 59% Calm Calm -- 30.15 in1021.0 mb 0.00 in0.0 mm 0.00 in/hr0.0 mm/hr 0.00 in0.0 mm
02:45 AM 64.9°F18.3°C 50.2°F10.1°C 59% Calm Calm -- 30.15 in1021.0 mb 0.00 in0.0 mm 0.00 in/hr0.0 mm/hr 0.00 in0.0 mm
02:40 AM 65.3°F18.5°C 50.0°F10.0°C 58% Calm Calm -- 30.15 in1021.0 mb 0.00 in0.0 mm 0.00 in/hr0.0 mm/hr 0.00 in0.0 mm
02:34 AM 65.5°F18.6°C 50.2°F10.1°C 58% Calm Calm 4.9 mph7.9 kmh 30.15 in1021.0 mb 0.00 in0.0 mm 0.00 in/hr0.0 mm/hr 0.00 in0.0 mm
02:29 AM 65.8°F18.8°C 50.5°F10.3°C 58% 2.8 mph S4.5 kmh S 4.9 mph7.9 kmh 30.15 in1021.0 mb 0.00 in0.0 mm 0.00 in/hr0.0 mm/hr 0.00 in0.0 mm
02:24 AM 66.0°F18.9°C 50.7°F10.4°C 58% 2.8 mph S4.5 kmh S 4.3 mph6.9 kmh 30.15 in1021.0 mb 0.00 in0.0 mm 0.00 in/hr0.0 mm/hr 0.00 in0.0 mm
02:19 AM 66.2°F19.0°C 50.3°F10.2°C 56% Calm Calm 4.3 mph6.9 kmh 30.15 in1021.0 mb 0.00 in0.0 mm 0.00 in/hr0.0 mm/hr 0.00 in0.0 mm
02:13 AM 66.7°F19.3°C 50.8°F10.4°C 56% 2.8 mph S4.5 kmh S 5.5 mph8.9 kmh 30.15 in1021.0 mb 0.00 in0.0 mm 0.00 in/hr0.0 mm/hr 0.00 in0.0 mm
02:08 AM 67.1°F19.5°C 51.2°F10.7°C 56% 3.5 mph S5.6 kmh S 5.5 mph8.9 kmh 30.15 in1021.0 mb 0.00 in0.0 mm 0.00 in/hr0.0 mm/hr 0.00 in0.0 mm
02:02 AM 67.3°F19.6°C 51.4°F10.8°C 56% 4.2 mph SSE6.8 kmh SSE 6.7 mph10.8 kmh 30.15 in1021.0 mb 0.00 in0.0 mm 0.00 in/hr0.0 mm/hr 0.00 in0.0 mm
01:57 AM 67.5°F19.7°C 51.6°F10.9°C 56% 3.3 mph S5.3 kmh S 6.7 mph10.8 kmh 30.15 in1021.0 mb 0.00 in0.0 mm 0.00 in/hr0.0 mm/hr 0.00 in0.0 mm
01:52 AM 67.6°F19.8°C 51.7°F10.9°C 56% 2.8 mph SSE4.5 kmh SSE 5.5 mph8.9 kmh 30.15 in1021.0 mb 0.00 in0.0 mm 0.00 in/hr0.0 mm/hr 0.00 in0.0 mm
01:47 AM 67.8°F19.9°C 51.9°F11.1°C 56% 2.8 mph S4.5 kmh S 7.4 mph11.9 kmh 30.15 in1021.0 mb 0.00 in0.0 mm 0.00 in/hr0.0 mm/hr 0.00 in0.0 mm
01:41 AM 67.8°F19.9°C 51.9°F11.1°C 57% 3.9 mph S6.3 kmh S 7.4 mph11.9 kmh 30.15 in1021.0 mb 0.00 in0.0 mm 0.00 in/hr0.0 mm/hr 0.00 in0.0 mm
01:36 AM 67.8°F19.9°C 51.9°F11.1°C 57% 3.9 mph S6.3 kmh S 7.4 mph11.9 kmh 30.15 in1021.0 mb 0.00 in0.0 mm 0.00 in/hr0.0 mm/hr 0.00 in0.0 mm
01:31 AM 68.0°F20.0°C 52.1°F11.2°C 57% 3.6 mph S5.8 kmh S 6.2 mph10.0 kmh 30.15 in1021.0 mb 0.00 in0.0 mm 0.00 in/hr0.0 mm/hr 0.00 in0.0 mm
01:26 AM 68.2°F20.1°C 52.3°F11.3°C 57% 3.6 mph SSE5.8 kmh SSE 6.2 mph10.0 kmh 30.15 in1021.0 mb 0.00 in0.0 mm 0.00 in/hr0.0 mm/hr 0.00 in0.0 mm
01:20 AM 68.2°F20.1°C 52.3°F11.3°C 57% Calm Calm 5.5 mph8.9 kmh 30.15 in1021.0 mb 0.00 in0.0 mm 0.00 in/hr0.0 mm/hr 0.00 in0.0 mm
01:15 AM 68.4°F20.2°C 52.5°F11.4°C 57% 3.8 mph SSE6.1 kmh SSE 6.7 mph10.8 kmh 30.15 in1021.0 mb 0.00 in0.0 mm 0.00 in/hr0.0 mm/hr 0.00 in0.0 mm
01:10 AM 68.5°F20.3°C 52.6°F11.4°C 57% 3.4 mph SSE5.5 kmh SSE 6.7 mph10.8 kmh 30.15 in1021.0 mb 0.00 in0.0 mm 0.00 in/hr0.0 mm/hr 0.00 in0.0 mm
01:05 AM 68.5°F20.3°C 52.6°F11.4°C 57% 2.9 mph SSE4.7 kmh SSE 8.0 mph12.9 kmh 30.15 in1021.0 mb 0.00 in0.0 mm 0.00 in/hr0.0 mm/hr 0.00 in0.0 mm
01:00 AM 68.5°F20.3°C 52.6°F11.4°C 57% 4.5 mph S7.2 kmh S 8.7 mph14.0 kmh 30.15 in1021.0 mb 0.00 in0.0 mm 0.00 in/hr0.0 mm/hr 0.00 in0.0 mm
12:55 AM 68.5°F20.3°C 52.6°F11.4°C 57% 3.1 mph S5.0 kmh S 8.7 mph14.0 kmh 30.15 in1021.0 mb 0.00 in0.0 mm 0.00 in/hr0.0 mm/hr 0.00 in0.0 mm
12:50 AM 68.7°F20.4°C 52.8°F11.6°C 57% 3.2 mph S5.1 kmh S 8.0 mph12.9 kmh 30.15 in1021.0 mb 0.00 in0.0 mm 0.00 in/hr0.0 mm/hr 0.00 in0.0 mm
12:45 AM 68.9°F20.5°C 53.0°F11.7°C 57% 3.4 mph S5.5 kmh S 7.4 mph11.9 kmh 30.15 in1021.0 mb 0.00 in0.0 mm 0.00 in/hr0.0 mm/hr 0.00 in0.0 mm
12:39 AM 68.9°F20.5°C 53.0°F11.7°C 57% 3.3 mph S5.3 kmh S 8.7 mph14.0 kmh 30.15 in1021.0 mb 0.00 in0.0 mm 0.00 in/hr0.0 mm/hr 0.00 in0.0 mm
12:34 AM 68.9°F20.5°C 53.0°F11.7°C 57% 4.0 mph S6.4 kmh S 8.7 mph14.0 kmh 30.15 in1021.0 mb 0.00 in0.0 mm 0.00 in/hr0.0 mm/hr 0.00 in0.0 mm
12:29 AM 69.1°F20.6°C 53.2°F11.8°C 57% 3.5 mph S5.6 kmh S 7.4 mph11.9 kmh 30.15 in1021.0 mb 0.00 in0.0 mm 0.00 in/hr0.0 mm/hr 0.00 in0.0 mm
12:24 AM 69.1°F20.6°C 53.2°F11.8°C 57% 3.6 mph S5.8 kmh S 8.0 mph12.9 kmh 30.15 in1021.0 mb 0.00 in0.0 mm 0.00 in/hr0.0 mm/hr 0.00 in0.0 mm
12:19 AM 69.1°F20.6°C 53.2°F11.8°C 57% 4.1 mph S6.6 kmh S 8.0 mph12.9 kmh 30.15 in1021.0 mb 0.00 in0.0 mm 0.00 in/hr0.0 mm/hr 0.00 in0.0 mm
12:14 AM 69.3°F20.7°C 53.4°F11.9°C 57% 3.8 mph SSE6.1 kmh SSE 8.7 mph14.0 kmh 30.15 in1021.0 mb 0.00 in0.0 mm 0.00 in/hr0.0 mm/hr 0.00 in0.0 mm
12:09 AM 69.3°F20.7°C 53.4°F11.9°C 57% 5.3 mph S8.5 kmh S 8.7 mph14.0 kmh 30.15 in1021.0 mb 0.00 in0.0 mm 0.00 in/hr0.0 mm/hr 0.00 in0.0 mm
12:04 AM 69.3°F20.7°C 53.4°F11.9°C 57% 5.7 mph SSE9.2 kmh SSE 8.7 mph14.0 kmh 30.15 in1021.0 mb 0.00 in0.0 mm 0.00 in/hr0.0 mm/hr 0.00 in0.0 mm